Terminal Aerodrome Forecast
Issued by NWS

Home | Current Version | Previous Version | Text Only | Print | Product List | Glossary On
Versions: 1 2 3 4 5 6 7 8 9 10 11 12 13 14 15 16 17 18
000
FTUS41 KBOX 302320
TAFFMH
TAF
KFMH 302320Z 0100/0124 17008KT P6SM FEW250
     FM010700 00000KT P6SM SCT060
     FM011400 13006KT P6SM OVC080
     FM011600 13007KT P6SM VCSH OVC070
     FM012100 12009KT 6SM -RA OVC060=

USA.gov is the U.S. government's official web portal to all federal, state and local government web resources and services.